sensor_id;sensor_type;location;lat;lon;timestamp;temperature;humidity
37518;DHT22;23366;52.498;13.446;2022-10-16T00:01:10;15.00;99.90
37518;DHT22;23366;52.498;13.446;2022-10-16T00:03:37;15.00;99.90
37518;DHT22;23366;52.498;13.446;2022-10-16T00:06:03;15.00;99.90
37518;DHT22;23366;52.498;13.446;2022-10-16T00:08:29;15.00;99.90
37518;DHT22;23366;52.498;13.446;2022-10-16T00:11:07;15.00;99.90
37518;DHT22;23366;52.498;13.446;2022-10-16T00:13:34;15.10;99.90
37518;DHT22;23366;52.498;13.446;2022-10-16T00:16:00;15.10;99.90
37518;DHT22;23366;52.498;13.446;2022-10-16T00:18:27;15.20;99.90
37518;DHT22;23366;52.498;13.446;2022-10-16T00:20:53;15.20;99.90
37518;DHT22;23366;52.498;13.446;2022-10-16T00:23:19;15.20;99.90
37518;DHT22;23366;52.498;13.446;2022-10-16T00:25:53;15.20;99.90
37518;DHT22;23366;52.498;13.446;2022-10-16T00:28:19;15.20;99.90
37518;DHT22;23366;52.498;13.446;2022-10-16T00:30:44;15.20;99.90
37518;DHT22;23366;52.498;13.446;2022-10-16T00:33:10;15.30;99.90
37518;DHT22;23366;52.498;13.446;2022-10-16T00:35:35;15.30;99.90
37518;DHT22;23366;52.498;13.446;2022-10-16T00:38:01;15.30;99.90
37518;DHT22;23366;52.498;13.446;2022-10-16T00:40:26;15.30;99.90
37518;DHT22;23366;52.498;13.446;2022-10-16T00:42:53;15.30;99.90
37518;DHT22;23366;52.498;13.446;2022-10-16T00:45:19;15.40;99.90
37518;DHT22;23366;52.498;13.446;2022-10-16T00:47:45;15.30;99.90
37518;DHT22;23366;52.498;13.446;2022-10-16T00:50:30;15.30;99.90
37518;DHT22;23366;52.498;13.446;2022-10-16T00:52:57;15.40;99.90
37518;DHT22;23366;52.498;13.446;2022-10-16T00:55:24;15.30;99.90
37518;DHT22;23366;52.498;13.446;2022-10-16T00:57:50;15.40;99.90
37518;DHT22;23366;52.498;13.446;2022-10-16T01:00:20;15.40;99.90
37518;DHT22;23366;52.498;13.446;2022-10-16T01:03:00;15.40;99.90
37518;DHT22;23366;52.498;13.446;2022-10-16T01:05:39;15.40;99.90
37518;DHT22;23366;52.498;13.446;2022-10-16T01:08:13;15.30;99.90
37518;DHT22;23366;52.498;13.446;2022-10-16T01:10:52;15.30;99.90
37518;DHT22;23366;52.498;13.446;2022-10-16T01:13:30;15.30;99.90
37518;DHT22;23366;52.498;13.446;2022-10-16T01:16:15;15.20;99.90
37518;DHT22;23366;52.498;13.446;2022-10-16T01:18:45;15.20;99.90
37518;DHT22;23366;52.498;13.446;2022-10-16T01:21:31;15.30;99.90
37518;DHT22;23366;52.498;13.446;2022-10-16T01:27:13;15.20;99.90
37518;DHT22;23366;52.498;13.446;2022-10-16T01:38:03;15.10;99.90
37518;DHT22;23366;52.498;13.446;2022-10-16T01:40:33;15.10;99.90
37518;DHT22;23366;52.498;13.446;2022-10-16T01:43:14;15.10;99.90
37518;DHT22;23366;52.498;13.446;2022-10-16T01:45:41;15.00;99.90
37518;DHT22;23366;52.498;13.446;2022-10-16T01:48:12;15.00;99.90
37518;DHT22;23366;52.498;13.446;2022-10-16T01:50:40;15.00;99.90
37518;DHT22;23366;52.498;13.446;2022-10-16T01:53:09;15.00;99.90
37518;DHT22;23366;52.498;13.446;2022-10-16T01:55:43;15.00;99.90
37518;DHT22;23366;52.498;13.446;2022-10-16T01:58:12;15.00;99.90
37518;DHT22;23366;52.498;13.446;2022-10-16T02:00:41;15.00;99.90
37518;DHT22;23366;52.498;13.446;2022-10-16T02:03:07;15.00;99.90
37518;DHT22;23366;52.498;13.446;2022-10-16T02:05:34;15.00;99.90
37518;DHT22;23366;52.498;13.446;2022-10-16T02:08:02;15.10;99.90
37518;DHT22;23366;52.498;13.446;2022-10-16T02:10:28;15.10;99.90
37518;DHT22;23366;52.498;13.446;2022-10-16T02:13:12;15.10;99.90
37518;DHT22;23366;52.498;13.446;2022-10-16T02:15:39;15.10;99.90
37518;DHT22;23366;52.498;13.446;2022-10-16T02:18:06;15.20;99.90
37518;DHT22;23366;52.498;13.446;2022-10-16T02:20:38;15.20;99.90
37518;DHT22;23366;52.498;13.446;2022-10-16T02:23:08;15.20;99.90
37518;DHT22;23366;52.498;13.446;2022-10-16T02:25:39;15.20;99.90
37518;DHT22;23366;52.498;13.446;2022-10-16T02:30:56;15.20;99.90
37518;DHT22;23366;52.498;13.446;2022-10-16T02:33:23;15.30;99.90
37518;DHT22;23366;52.498;13.446;2022-10-16T02:35:50;15.30;99.90
37518;DHT22;23366;52.498;13.446;2022-10-16T02:38:17;15.30;99.90
37518;DHT22;23366;52.498;13.446;2022-10-16T02:40:44;15.30;99.90
37518;DHT22;23366;52.498;13.446;2022-10-16T02:43:09;15.30;99.90
37518;DHT22;23366;52.498;13.446;2022-10-16T02:45:36;15.30;99.90
37518;DHT22;23366;52.498;13.446;2022-10-16T02:48:01;15.30;99.90
37518;DHT22;23366;52.498;13.446;2022-10-16T02:50:27;15.30;99.90
37518;DHT22;23366;52.498;13.446;2022-10-16T02:52:53;15.30;99.90
37518;DHT22;23366;52.498;13.446;2022-10-16T02:55:18;15.30;99.90
37518;DHT22;23366;52.498;13.446;2022-10-16T02:57:44;15.30;99.90
37518;DHT22;23366;52.498;13.446;2022-10-16T03:00:12;15.40;99.90
37518;DHT22;23366;52.498;13.446;2022-10-16T03:02:38;15.40;99.90
37518;DHT22;23366;52.498;13.446;2022-10-16T03:05:05;15.30;99.90
37518;DHT22;23366;52.498;13.446;2022-10-16T03:07:30;15.30;99.90
37518;DHT22;23366;52.498;13.446;2022-10-16T03:09:56;15.30;99.90
37518;DHT22;23366;52.498;13.446;2022-10-16T03:12:21;15.30;99.90
37518;DHT22;23366;52.498;13.446;2022-10-16T03:14:47;15.30;99.90
37518;DHT22;23366;52.498;13.446;2022-10-16T03:17:13;15.20;99.90
37518;DHT22;23366;52.498;13.446;2022-10-16T03:19:38;15.20;99.90
37518;DHT22;23366;52.498;13.446;2022-10-16T03:22:04;15.20;99.90
37518;DHT22;23366;52.498;13.446;2022-10-16T03:24:29;15.20;99.90
37518;DHT22;23366;52.498;13.446;2022-10-16T03:26:55;15.20;99.90
37518;DHT22;23366;52.498;13.446;2022-10-16T03:29:21;15.10;99.90
37518;DHT22;23366;52.498;13.446;2022-10-16T03:31:46;15.10;99.90
37518;DHT22;23366;52.498;13.446;2022-10-16T03:34:13;15.10;99.90
37518;DHT22;23366;52.498;13.446;2022-10-16T03:36:39;15.10;99.90
37518;DHT22;23366;52.498;13.446;2022-10-16T03:39:04;15.10;99.90
37518;DHT22;23366;52.498;13.446;2022-10-16T03:41:30;15.10;99.90
37518;DHT22;23366;52.498;13.446;2022-10-16T03:43:55;15.10;99.90
37518;DHT22;23366;52.498;13.446;2022-10-16T03:46:21;15.10;99.90
37518;DHT22;23366;52.498;13.446;2022-10-16T03:48:47;15.00;99.90
37518;DHT22;23366;52.498;13.446;2022-10-16T03:51:12;15.00;99.90
37518;DHT22;23366;52.498;13.446;2022-10-16T03:53:38;15.00;99.90
37518;DHT22;23366;52.498;13.446;2022-10-16T03:56:04;15.00;99.90
37518;DHT22;23366;52.498;13.446;2022-10-16T03:58:29;15.00;99.90
37518;DHT22;23366;52.498;13.446;2022-10-16T04:00:55;15.00;99.90
37518;DHT22;23366;52.498;13.446;2022-10-16T04:03:20;14.90;99.90
37518;DHT22;23366;52.498;13.446;2022-10-16T04:05:46;14.90;99.90
37518;DHT22;23366;52.498;13.446;2022-10-16T04:08:12;14.90;99.90
37518;DHT22;23366;52.498;13.446;2022-10-16T04:10:37;14.90;99.90
37518;DHT22;23366;52.498;13.446;2022-10-16T04:13:03;14.90;99.90
37518;DHT22;23366;52.498;13.446;2022-10-16T04:15:28;14.90;99.90
37518;DHT22;23366;52.498;13.446;2022-10-16T04:17:54;14.90;99.90
37518;DHT22;23366;52.498;13.446;2022-10-16T04:20:19;14.90;99.90
37518;DHT22;23366;52.498;13.446;2022-10-16T04:22:45;14.90;99.90
37518;DHT22;23366;52.498;13.446;2022-10-16T04:25:11;14.90;99.90
37518;DHT22;23366;52.498;13.446;2022-10-16T04:27:37;14.90;99.90
37518;DHT22;23366;52.498;13.446;2022-10-16T04:30:03;14.90;99.90
37518;DHT22;23366;52.498;13.446;2022-10-16T04:32:29;14.90;99.90
37518;DHT22;23366;52.498;13.446;2022-10-16T04:34:54;14.90;99.90
37518;DHT22;23366;52.498;13.446;2022-10-16T04:37:24;14.90;99.90
37518;DHT22;23366;52.498;13.446;2022-10-16T04:39:50;14.90;99.90
37518;DHT22;23366;52.498;13.446;2022-10-16T04:42:16;14.90;99.90
37518;DHT22;23366;52.498;13.446;2022-10-16T04:44:41;14.90;99.90
37518;DHT22;23366;52.498;13.446;2022-10-16T04:47:06;14.90;99.90
37518;DHT22;23366;52.498;13.446;2022-10-16T04:49:32;14.90;99.90
37518;DHT22;23366;52.498;13.446;2022-10-16T04:51:57;14.90;99.90
37518;DHT22;23366;52.498;13.446;2022-10-16T04:54:23;14.80;99.90
37518;DHT22;23366;52.498;13.446;2022-10-16T04:56:48;14.80;99.90
37518;DHT22;23366;52.498;13.446;2022-10-16T04:59:16;14.80;99.90
37518;DHT22;23366;52.498;13.446;2022-10-16T05:01:42;14.80;99.90
37518;DHT22;23366;52.498;13.446;2022-10-16T05:04:08;14.80;99.90
37518;DHT22;23366;52.498;13.446;2022-10-16T05:06:34;14.80;99.90
37518;DHT22;23366;52.498;13.446;2022-10-16T05:08:59;14.70;99.90
37518;DHT22;23366;52.498;13.446;2022-10-16T05:11:25;14.80;99.90
37518;DHT22;23366;52.498;13.446;2022-10-16T05:13:50;14.70;99.90
37518;DHT22;23366;52.498;13.446;2022-10-16T05:16:16;14.70;99.90
37518;DHT22;23366;52.498;13.446;2022-10-16T05:18:41;14.70;99.90
37518;DHT22;23366;52.498;13.446;2022-10-16T05:21:07;14.70;99.90
37518;DHT22;23366;52.498;13.446;2022-10-16T05:23:33;14.70;99.90
37518;DHT22;23366;52.498;13.446;2022-10-16T05:25:59;14.60;99.90
37518;DHT22;23366;52.498;13.446;2022-10-16T05:28:26;14.60;99.90
37518;DHT22;23366;52.498;13.446;2022-10-16T05:30:52;14.60;99.90
37518;DHT22;23366;52.498;13.446;2022-10-16T05:33:20;14.60;99.90
37518;DHT22;23366;52.498;13.446;2022-10-16T05:35:46;14.60;99.90
37518;DHT22;23366;52.498;13.446;2022-10-16T05:38:11;14.60;99.90
37518;DHT22;23366;52.498;13.446;2022-10-16T05:40:37;14.70;99.90
37518;DHT22;23366;52.498;13.446;2022-10-16T05:43:03;14.70;99.90
37518;DHT22;23366;52.498;13.446;2022-10-16T05:45:28;14.60;99.90
37518;DHT22;23366;52.498;13.446;2022-10-16T05:47:54;14.60;99.90
37518;DHT22;23366;52.498;13.446;2022-10-16T05:50:19;14.60;99.90
37518;DHT22;23366;52.498;13.446;2022-10-16T05:52:45;14.60;99.90
37518;DHT22;23366;52.498;13.446;2022-10-16T05:55:10;14.70;99.90
37518;DHT22;23366;52.498;13.446;2022-10-16T05:57:36;14.80;99.90
37518;DHT22;23366;52.498;13.446;2022-10-16T06:00:03;14.80;99.90
37518;DHT22;23366;52.498;13.446;2022-10-16T06:02:29;14.90;99.90
37518;DHT22;23366;52.498;13.446;2022-10-16T06:04:54;15.00;99.90
37518;DHT22;23366;52.498;13.446;2022-10-16T06:07:20;15.00;99.90
37518;DHT22;23366;52.498;13.446;2022-10-16T06:09:49;15.00;99.90
37518;DHT22;23366;52.498;13.446;2022-10-16T06:12:15;15.00;99.90
37518;DHT22;23366;52.498;13.446;2022-10-16T06:14:41;15.00;99.90
37518;DHT22;23366;52.498;13.446;2022-10-16T06:17:06;15.10;99.90
37518;DHT22;23366;52.498;13.446;2022-10-16T06:19:32;15.10;99.90
37518;DHT22;23366;52.498;13.446;2022-10-16T06:21:57;15.20;99.90
37518;DHT22;23366;52.498;13.446;2022-10-16T06:24:24;15.30;99.90
37518;DHT22;23366;52.498;13.446;2022-10-16T06:26:49;15.30;99.90
37518;DHT22;23366;52.498;13.446;2022-10-16T06:29:15;15.40;99.90
37518;DHT22;23366;52.498;13.446;2022-10-16T06:31:40;15.40;99.90
37518;DHT22;23366;52.498;13.446;2022-10-16T06:34:06;15.40;99.90
37518;DHT22;23366;52.498;13.446;2022-10-16T06:36:35;15.40;99.90
37518;DHT22;23366;52.498;13.446;2022-10-16T06:39:00;15.50;99.90
37518;DHT22;23366;52.498;13.446;2022-10-16T06:41:26;15.60;99.90
37518;DHT22;23366;52.498;13.446;2022-10-16T06:43:51;15.70;99.90
37518;DHT22;23366;52.498;13.446;2022-10-16T06:46:20;15.80;99.90
37518;DHT22;23366;52.498;13.446;2022-10-16T06:48:46;15.80;99.90
37518;DHT22;23366;52.498;13.446;2022-10-16T06:51:13;15.80;99.90
37518;DHT22;23366;52.498;13.446;2022-10-16T06:53:42;15.80;99.90
37518;DHT22;23366;52.498;13.446;2022-10-16T06:56:08;15.70;99.90
37518;DHT22;23366;52.498;13.446;2022-10-16T06:58:34;15.70;99.90
37518;DHT22;23366;52.498;13.446;2022-10-16T07:01:00;15.70;99.90
37518;DHT22;23366;52.498;13.446;2022-10-16T07:03:25;15.70;99.90
37518;DHT22;23366;52.498;13.446;2022-10-16T07:05:51;15.80;99.90
37518;DHT22;23366;52.498;13.446;2022-10-16T07:08:16;15.80;99.90
37518;DHT22;23366;52.498;13.446;2022-10-16T07:10:42;15.90;99.90
37518;DHT22;23366;52.498;13.446;2022-10-16T07:13:07;16.00;99.90
37518;DHT22;23366;52.498;13.446;2022-10-16T07:15:33;16.20;99.90
37518;DHT22;23366;52.498;13.446;2022-10-16T07:18:01;16.60;99.90
37518;DHT22;23366;52.498;13.446;2022-10-16T07:20:26;17.00;99.90
37518;DHT22;23366;52.498;13.446;2022-10-16T07:22:52;17.30;99.90
37518;DHT22;23366;52.498;13.446;2022-10-16T07:25:17;17.50;99.90
37518;DHT22;23366;52.498;13.446;2022-10-16T07:27:43;17.50;99.90
37518;DHT22;23366;52.498;13.446;2022-10-16T07:30:09;17.50;99.90
37518;DHT22;23366;52.498;13.446;2022-10-16T07:32:34;17.60;99.90
37518;DHT22;23366;52.498;13.446;2022-10-16T07:35:00;17.70;99.90
37518;DHT22;23366;52.498;13.446;2022-10-16T07:37:25;17.80;99.90
37518;DHT22;23366;52.498;13.446;2022-10-16T07:39:51;17.90;99.90
37518;DHT22;23366;52.498;13.446;2022-10-16T07:42:17;17.90;99.90
37518;DHT22;23366;52.498;13.446;2022-10-16T07:44:42;18.00;99.90
37518;DHT22;23366;52.498;13.446;2022-10-16T07:47:08;18.10;99.90
37518;DHT22;23366;52.498;13.446;2022-10-16T07:49:34;18.10;99.90
37518;DHT22;23366;52.498;13.446;2022-10-16T07:51:59;18.10;99.90
37518;DHT22;23366;52.498;13.446;2022-10-16T07:54:25;18.10;99.90
37518;DHT22;23366;52.498;13.446;2022-10-16T07:56:50;18.10;99.90
37518;DHT22;23366;52.498;13.446;2022-10-16T07:59:16;18.00;99.90
37518;DHT22;23366;52.498;13.446;2022-10-16T08:01:42;17.90;99.90
37518;DHT22;23366;52.498;13.446;2022-10-16T08:04:08;17.90;99.90
37518;DHT22;23366;52.498;13.446;2022-10-16T08:06:39;17.90;99.90
37518;DHT22;23366;52.498;13.446;2022-10-16T08:09:05;17.80;99.90
37518;DHT22;23366;52.498;13.446;2022-10-16T08:11:31;17.80;99.90
37518;DHT22;23366;52.498;13.446;2022-10-16T08:13:57;17.70;99.90
37518;DHT22;23366;52.498;13.446;2022-10-16T08:16:22;17.70;99.90
37518;DHT22;23366;52.498;13.446;2022-10-16T08:18:48;17.70;99.90
37518;DHT22;23366;52.498;13.446;2022-10-16T08:21:19;17.60;99.90
37518;DHT22;23366;52.498;13.446;2022-10-16T08:23:45;17.60;99.90
37518;DHT22;23366;52.498;13.446;2022-10-16T08:26:12;17.50;99.90
37518;DHT22;23366;52.498;13.446;2022-10-16T08:28:37;17.60;99.90
37518;DHT22;23366;52.498;13.446;2022-10-16T08:31:08;17.70;99.90
37518;DHT22;23366;52.498;13.446;2022-10-16T08:33:33;17.80;99.90
37518;DHT22;23366;52.498;13.446;2022-10-16T08:36:02;18.00;99.90
37518;DHT22;23366;52.498;13.446;2022-10-16T08:38:28;18.10;99.90
37518;DHT22;23366;52.498;13.446;2022-10-16T08:41:01;18.20;99.90
37518;DHT22;23366;52.498;13.446;2022-10-16T08:43:56;18.20;99.90
37518;DHT22;23366;52.498;13.446;2022-10-16T08:46:29;18.30;99.90
37518;DHT22;23366;52.498;13.446;2022-10-16T08:49:02;18.40;99.90
37518;DHT22;23366;52.498;13.446;2022-10-16T08:51:34;18.50;99.90
37518;DHT22;23366;52.498;13.446;2022-10-16T08:54:05;18.50;99.90
37518;DHT22;23366;52.498;13.446;2022-10-16T08:56:31;18.40;99.90
37518;DHT22;23366;52.498;13.446;2022-10-16T08:58:59;18.40;99.90
37518;DHT22;23366;52.498;13.446;2022-10-16T09:01:37;18.40;99.90
37518;DHT22;23366;52.498;13.446;2022-10-16T09:07:29;18.30;99.90
37518;DHT22;23366;52.498;13.446;2022-10-16T09:12:48;18.30;99.90
37518;DHT22;23366;52.498;13.446;2022-10-16T09:15:35;18.40;99.90
37518;DHT22;23366;52.498;13.446;2022-10-16T09:18:42;18.70;99.90
37518;DHT22;23366;52.498;13.446;2022-10-16T09:21:19;19.00;99.90
37518;DHT22;23366;52.498;13.446;2022-10-16T09:23:47;19.30;99.90
37518;DHT22;23366;52.498;13.446;2022-10-16T09:26:14;19.40;99.90
37518;DHT22;23366;52.498;13.446;2022-10-16T09:28:41;19.40;99.90
37518;DHT22;23366;52.498;13.446;2022-10-16T09:31:13;19.50;99.90
37518;DHT22;23366;52.498;13.446;2022-10-16T09:33:40;19.60;99.90
37518;DHT22;23366;52.498;13.446;2022-10-16T09:36:10;19.70;99.90
37518;DHT22;23366;52.498;13.446;2022-10-16T09:38:38;19.70;99.90
37518;DHT22;23366;52.498;13.446;2022-10-16T09:41:15;19.60;99.90
37518;DHT22;23366;52.498;13.446;2022-10-16T09:43:59;19.40;99.90
37518;DHT22;23366;52.498;13.446;2022-10-16T09:46:27;19.40;99.90
37518;DHT22;23366;52.498;13.446;2022-10-16T09:49:00;19.40;99.90
37518;DHT22;23366;52.498;13.446;2022-10-16T09:51:31;19.50;99.90
37518;DHT22;23366;52.498;13.446;2022-10-16T09:56:25;19.60;99.90
37518;DHT22;23366;52.498;13.446;2022-10-16T09:59:08;19.60;99.90
37518;DHT22;23366;52.498;13.446;2022-10-16T10:01:39;19.50;99.90
37518;DHT22;23366;52.498;13.446;2022-10-16T10:04:06;19.40;99.90
37518;DHT22;23366;52.498;13.446;2022-10-16T10:09:22;19.40;99.90
37518;DHT22;23366;52.498;13.446;2022-10-16T10:12:01;19.40;99.90
37518;DHT22;23366;52.498;13.446;2022-10-16T10:14:46;19.40;99.90
37518;DHT22;23366;52.498;13.446;2022-10-16T10:17:18;19.50;99.90
37518;DHT22;23366;52.498;13.446;2022-10-16T10:19:48;19.60;99.90
37518;DHT22;23366;52.498;13.446;2022-10-16T10:22:39;19.70;99.90
37518;DHT22;23366;52.498;13.446;2022-10-16T10:28:17;20.00;99.90
37518;DHT22;23366;52.498;13.446;2022-10-16T10:34:11;20.20;99.90
37518;DHT22;23366;52.498;13.446;2022-10-16T10:36:41;20.40;99.90
37518;DHT22;23366;52.498;13.446;2022-10-16T10:39:22;20.50;99.90
37518;DHT22;23366;52.498;13.446;2022-10-16T10:47:34;20.70;99.90
37518;DHT22;23366;52.498;13.446;2022-10-16T10:50:07;20.70;99.90
37518;DHT22;23366;52.498;13.446;2022-10-16T10:55:38;20.90;99.90
37518;DHT22;23366;52.498;13.446;2022-10-16T11:01:17;20.80;99.90
37518;DHT22;23366;52.498;13.446;2022-10-16T11:06:43;20.70;99.90
37518;DHT22;23366;52.498;13.446;2022-10-16T11:09:23;20.70;99.90
37518;DHT22;23366;52.498;13.446;2022-10-16T11:17:38;21.10;99.90
37518;DHT22;23366;52.498;13.446;2022-10-16T11:20:26;21.20;99.90
37518;DHT22;23366;52.498;13.446;2022-10-16T11:23:06;21.30;99.90
37518;DHT22;23366;52.498;13.446;2022-10-16T11:25:33;21.30;99.90
37518;DHT22;23366;52.498;13.446;2022-10-16T11:30:47;21.20;99.90
37518;DHT22;23366;52.498;13.446;2022-10-16T11:38:51;21.10;99.90
37518;DHT22;23366;52.498;13.446;2022-10-16T11:41:44;21.00;99.90
37518;DHT22;23366;52.498;13.446;2022-10-16T11:44:32;20.90;99.90
37518;DHT22;23366;52.498;13.446;2022-10-16T11:47:19;21.00;99.90
37518;DHT22;23366;52.498;13.446;2022-10-16T11:50:12;20.90;99.90
37518;DHT22;23366;52.498;13.446;2022-10-16T11:52:52;20.80;99.90
37518;DHT22;23366;52.498;13.446;2022-10-16T11:55:21;20.60;99.90
37518;DHT22;23366;52.498;13.446;2022-10-16T11:57:52;20.50;99.90
37518;DHT22;23366;52.498;13.446;2022-10-16T12:03:42;20.00;99.90
37518;DHT22;23366;52.498;13.446;2022-10-16T12:09:47;19.70;99.90
37518;DHT22;23366;52.498;13.446;2022-10-16T12:15:15;19.50;99.90
37518;DHT22;23366;52.498;13.446;2022-10-16T12:17:48;19.40;99.90
37518;DHT22;23366;52.498;13.446;2022-10-16T12:20:32;19.40;99.90
37518;DHT22;23366;52.498;13.446;2022-10-16T12:23:16;19.50;99.90
37518;DHT22;23366;52.498;13.446;2022-10-16T12:25:54;19.60;99.90
37518;DHT22;23366;52.498;13.446;2022-10-16T12:28:31;19.60;99.90
37518;DHT22;23366;52.498;13.446;2022-10-16T12:34:05;19.70;99.90
37518;DHT22;23366;52.498;13.446;2022-10-16T12:36:39;19.70;99.90
37518;DHT22;23366;52.498;13.446;2022-10-16T12:39:20;19.70;99.90
37518;DHT22;23366;52.498;13.446;2022-10-16T12:42:01;19.70;99.90
37518;DHT22;23366;52.498;13.446;2022-10-16T12:44:36;19.60;99.90
37518;DHT22;23366;52.498;13.446;2022-10-16T12:47:18;19.60;99.90
37518;DHT22;23366;52.498;13.446;2022-10-16T12:52:54;19.60;99.90
37518;DHT22;23366;52.498;13.446;2022-10-16T12:55:25;19.60;99.90
37518;DHT22;23366;52.498;13.446;2022-10-16T12:58:24;19.60;99.90
37518;DHT22;23366;52.498;13.446;2022-10-16T13:16:34;19.50;99.90
37518;DHT22;23366;52.498;13.446;2022-10-16T13:19:24;19.50;99.90
37518;DHT22;23366;52.498;13.446;2022-10-16T13:22:29;19.50;99.90
37518;DHT22;23366;52.498;13.446;2022-10-16T13:25:18;19.50;99.90
37518;DHT22;23366;52.498;13.446;2022-10-16T13:30:53;19.40;99.90
37518;DHT22;23366;52.498;13.446;2022-10-16T13:33:40;19.40;99.90
37518;DHT22;23366;52.498;13.446;2022-10-16T13:36:50;19.30;99.90
37518;DHT22;23366;52.498;13.446;2022-10-16T13:39:30;19.20;99.90
37518;DHT22;23366;52.498;13.446;2022-10-16T13:42:17;19.30;99.90
37518;DHT22;23366;52.498;13.446;2022-10-16T13:44:50;19.20;99.90
37518;DHT22;23366;52.498;13.446;2022-10-16T13:47:37;19.30;99.90
37518;DHT22;23366;52.498;13.446;2022-10-16T13:50:13;19.30;99.90
37518;DHT22;23366;52.498;13.446;2022-10-16T13:52:44;19.30;99.90
37518;DHT22;23366;52.498;13.446;2022-10-16T13:55:21;19.30;99.90
37518;DHT22;23366;52.498;13.446;2022-10-16T13:57:48;19.30;99.90
37518;DHT22;23366;52.498;13.446;2022-10-16T14:00:26;19.30;99.90
37518;DHT22;23366;52.498;13.446;2022-10-16T14:03:13;19.20;99.90
37518;DHT22;23366;52.498;13.446;2022-10-16T14:05:53;19.20;99.90
37518;DHT22;23366;52.498;13.446;2022-10-16T14:08:19;19.10;99.90
37518;DHT22;23366;52.498;13.446;2022-10-16T14:10:54;19.10;99.90
37518;DHT22;23366;52.498;13.446;2022-10-16T14:15:56;19.00;99.90
37518;DHT22;23366;52.498;13.446;2022-10-16T14:18:25;19.00;99.90
37518;DHT22;23366;52.498;13.446;2022-10-16T14:20:51;19.00;99.90
37518;DHT22;23366;52.498;13.446;2022-10-16T14:23:23;19.00;99.90
37518;DHT22;23366;52.498;13.446;2022-10-16T14:25:53;19.00;99.90
37518;DHT22;23366;52.498;13.446;2022-10-16T14:28:22;19.00;99.90
37518;DHT22;23366;52.498;13.446;2022-10-16T14:38:34;18.90;99.90
37518;DHT22;23366;52.498;13.446;2022-10-16T14:41:01;18.80;99.90
37518;DHT22;23366;52.498;13.446;2022-10-16T14:43:38;18.80;99.90
37518;DHT22;23366;52.498;13.446;2022-10-16T14:46:16;18.80;99.90
37518;DHT22;23366;52.498;13.446;2022-10-16T14:48:48;18.80;99.90
37518;DHT22;23366;52.498;13.446;2022-10-16T14:51:16;18.70;99.90
37518;DHT22;23366;52.498;13.446;2022-10-16T14:53:42;18.70;99.90
37518;DHT22;23366;52.498;13.446;2022-10-16T14:56:08;18.70;99.90
37518;DHT22;23366;52.498;13.446;2022-10-16T14:58:42;18.70;99.90
37518;DHT22;23366;52.498;13.446;2022-10-16T15:01:10;18.70;99.90
37518;DHT22;23366;52.498;13.446;2022-10-16T15:03:37;18.60;99.90
37518;DHT22;23366;52.498;13.446;2022-10-16T15:06:03;18.60;99.90
37518;DHT22;23366;52.498;13.446;2022-10-16T15:08:28;18.60;99.90
37518;DHT22;23366;52.498;13.446;2022-10-16T15:10:54;18.50;99.90
37518;DHT22;23366;52.498;13.446;2022-10-16T15:13:19;18.40;99.90
37518;DHT22;23366;52.498;13.446;2022-10-16T15:15:46;18.40;99.90
37518;DHT22;23366;52.498;13.446;2022-10-16T15:18:12;18.40;99.90
37518;DHT22;23366;52.498;13.446;2022-10-16T15:20:40;18.30;99.90
37518;DHT22;23366;52.498;13.446;2022-10-16T15:23:14;18.30;99.90
37518;DHT22;23366;52.498;13.446;2022-10-16T15:25:52;18.30;99.90
37518;DHT22;23366;52.498;13.446;2022-10-16T15:28:20;18.20;99.90
37518;DHT22;23366;52.498;13.446;2022-10-16T15:30:46;18.10;99.90
37518;DHT22;23366;52.498;13.446;2022-10-16T15:33:16;18.10;99.90
37518;DHT22;23366;52.498;13.446;2022-10-16T15:36:04;18.00;99.90
37518;DHT22;23366;52.498;13.446;2022-10-16T15:39:43;18.00;99.90
37518;DHT22;23366;52.498;13.446;2022-10-16T15:45:28;17.90;99.90
37518;DHT22;23366;52.498;13.446;2022-10-16T15:48:12;17.80;99.90
37518;DHT22;23366;52.498;13.446;2022-10-16T15:50:52;17.80;99.90
37518;DHT22;23366;52.498;13.446;2022-10-16T15:53:50;17.70;99.90
37518;DHT22;23366;52.498;13.446;2022-10-16T15:56:49;17.60;99.90
37518;DHT22;23366;52.498;13.446;2022-10-16T15:59:52;17.60;99.90
37518;DHT22;23366;52.498;13.446;2022-10-16T16:02:50;17.50;99.90
37518;DHT22;23366;52.498;13.446;2022-10-16T16:05:17;17.40;99.90
37518;DHT22;23366;52.498;13.446;2022-10-16T16:07:48;17.40;99.90
37518;DHT22;23366;52.498;13.446;2022-10-16T16:10:14;17.30;99.90
37518;DHT22;23366;52.498;13.446;2022-10-16T16:12:41;17.20;99.90
37518;DHT22;23366;52.498;13.446;2022-10-16T16:15:08;17.10;99.90
37518;DHT22;23366;52.498;13.446;2022-10-16T16:17:35;17.10;99.90
37518;DHT22;23366;52.498;13.446;2022-10-16T16:20:03;17.00;99.90
37518;DHT22;23366;52.498;13.446;2022-10-16T16:22:30;17.00;99.90
37518;DHT22;23366;52.498;13.446;2022-10-16T16:24:56;16.90;99.90
37518;DHT22;23366;52.498;13.446;2022-10-16T16:27:21;16.90;99.90
37518;DHT22;23366;52.498;13.446;2022-10-16T16:29:50;16.80;99.90
37518;DHT22;23366;52.498;13.446;2022-10-16T16:32:23;16.80;99.90
37518;DHT22;23366;52.498;13.446;2022-10-16T16:34:53;16.70;99.90
37518;DHT22;23366;52.498;13.446;2022-10-16T16:37:31;16.70;99.90
37518;DHT22;23366;52.498;13.446;2022-10-16T16:39:58;16.60;99.90
37518;DHT22;23366;52.498;13.446;2022-10-16T16:42:26;16.60;99.90
37518;DHT22;23366;52.498;13.446;2022-10-16T16:44:53;16.50;99.90
37518;DHT22;23366;52.498;13.446;2022-10-16T16:47:19;16.50;99.90
37518;DHT22;23366;52.498;13.446;2022-10-16T16:49:45;16.40;99.90
37518;DHT22;23366;52.498;13.446;2022-10-16T16:52:13;16.40;99.90
37518;DHT22;23366;52.498;13.446;2022-10-16T16:54:38;16.40;99.90
37518;DHT22;23366;52.498;13.446;2022-10-16T16:57:04;16.30;99.90
37518;DHT22;23366;52.498;13.446;2022-10-16T16:59:31;16.30;99.90
37518;DHT22;23366;52.498;13.446;2022-10-16T17:01:59;16.30;99.90
37518;DHT22;23366;52.498;13.446;2022-10-16T17:04:24;16.20;99.90
37518;DHT22;23366;52.498;13.446;2022-10-16T17:06:50;16.20;99.90
37518;DHT22;23366;52.498;13.446;2022-10-16T17:09:17;16.20;99.90
37518;DHT22;23366;52.498;13.446;2022-10-16T17:11:44;16.20;99.90
37518;DHT22;23366;52.498;13.446;2022-10-16T17:14:11;16.10;99.90
37518;DHT22;23366;52.498;13.446;2022-10-16T17:16:38;16.10;99.90
37518;DHT22;23366;52.498;13.446;2022-10-16T17:19:07;16.10;99.90
37518;DHT22;23366;52.498;13.446;2022-10-16T17:21:34;16.00;99.90
37518;DHT22;23366;52.498;13.446;2022-10-16T17:23:59;16.00;99.90